sensor_id;sensor_type;location;lat;lon;timestamp;temperature;humidity
40023;DHT22;25713;-35.352;149.036;2023-09-19T00:01:00;18.80;61.70
40023;DHT22;25713;-35.352;149.036;2023-09-19T00:03:30;18.80;62.00
40023;DHT22;25713;-35.352;149.036;2023-09-19T00:06:00;18.80;63.30
40023;DHT22;25713;-35.352;149.036;2023-09-19T00:08:29;18.90;62.10
40023;DHT22;25713;-35.352;149.036;2023-09-19T00:11:00;18.90;62.70
40023;DHT22;25713;-35.352;149.036;2023-09-19T00:13:30;19.00;61.70
40023;DHT22;25713;-35.352;149.036;2023-09-19T00:15:59;19.00;62.20
40023;DHT22;25713;-35.352;149.036;2023-09-19T00:18:29;19.00;63.50
40023;DHT22;25713;-35.352;149.036;2023-09-19T00:20:59;19.00;62.20
40023;DHT22;25713;-35.352;149.036;2023-09-19T00:23:28;19.00;62.60
40023;DHT22;25713;-35.352;149.036;2023-09-19T00:26:02;19.10;62.40
40023;DHT22;25713;-35.352;149.036;2023-09-19T00:28:31;19.20;62.20
40023;DHT22;25713;-35.352;149.036;2023-09-19T00:31:01;19.30;61.20
40023;DHT22;25713;-35.352;149.036;2023-09-19T00:33:31;19.30;61.40
40023;DHT22;25713;-35.352;149.036;2023-09-19T00:36:00;19.40;61.50
40023;DHT22;25713;-35.352;149.036;2023-09-19T00:38:29;19.30;62.10
40023;DHT22;25713;-35.352;149.036;2023-09-19T00:41:02;19.40;61.90
40023;DHT22;25713;-35.352;149.036;2023-09-19T00:43:31;19.50;61.60
40023;DHT22;25713;-35.352;149.036;2023-09-19T00:46:01;19.50;61.20
40023;DHT22;25713;-35.352;149.036;2023-09-19T00:48:31;19.60;61.40
40023;DHT22;25713;-35.352;149.036;2023-09-19T00:51:03;19.60;61.90
40023;DHT22;25713;-35.352;149.036;2023-09-19T00:53:33;19.60;62.50
40023;DHT22;25713;-35.352;149.036;2023-09-19T00:56:06;19.60;61.70
40023;DHT22;25713;-35.352;149.036;2023-09-19T00:58:36;19.70;61.70
40023;DHT22;25713;-35.352;149.036;2023-09-19T01:01:06;19.80;61.40
40023;DHT22;25713;-35.352;149.036;2023-09-19T01:03:36;19.80;61.10
40023;DHT22;25713;-35.352;149.036;2023-09-19T01:06:06;19.80;62.60
40023;DHT22;25713;-35.352;149.036;2023-09-19T01:08:36;19.90;61.20
40023;DHT22;25713;-35.352;149.036;2023-09-19T01:11:13;19.90;61.20
40023;DHT22;25713;-35.352;149.036;2023-09-19T01:13:52;20.10;60.10
40023;DHT22;25713;-35.352;149.036;2023-09-19T01:16:32;20.10;59.60
40023;DHT22;25713;-35.352;149.036;2023-09-19T01:22:07;20.20;59.50
40023;DHT22;25713;-35.352;149.036;2023-09-19T01:25:14;20.30;60.30
40023;DHT22;25713;-35.352;149.036;2023-09-19T01:28:15;20.30;59.20
40023;DHT22;25713;-35.352;149.036;2023-09-19T01:30:55;20.40;58.70
40023;DHT22;25713;-35.352;149.036;2023-09-19T01:33:25;20.50;58.30
40023;DHT22;25713;-35.352;149.036;2023-09-19T01:35:54;20.50;58.80
40023;DHT22;25713;-35.352;149.036;2023-09-19T01:38:24;20.40;59.40
40023;DHT22;25713;-35.352;149.036;2023-09-19T01:41:00;20.60;58.10
40023;DHT22;25713;-35.352;149.036;2023-09-19T01:43:35;20.60;58.50
40023;DHT22;25713;-35.352;149.036;2023-09-19T01:46:12;20.60;57.70
40023;DHT22;25713;-35.352;149.036;2023-09-19T01:48:46;20.60;57.50
40023;DHT22;25713;-35.352;149.036;2023-09-19T01:51:24;20.70;57.10
40023;DHT22;25713;-35.352;149.036;2023-09-19T01:54:02;20.80;56.50
40023;DHT22;25713;-35.352;149.036;2023-09-19T01:56:34;21.00;55.20
40023;DHT22;25713;-35.352;149.036;2023-09-19T01:59:08;20.90;56.80
40023;DHT22;25713;-35.352;149.036;2023-09-19T02:01:42;20.90;56.60
40023;DHT22;25713;-35.352;149.036;2023-09-19T02:04:13;21.00;55.60
40023;DHT22;25713;-35.352;149.036;2023-09-19T02:06:43;21.10;55.70
40023;DHT22;25713;-35.352;149.036;2023-09-19T02:09:13;21.00;56.10
40023;DHT22;25713;-35.352;149.036;2023-09-19T02:11:43;21.10;55.60
40023;DHT22;25713;-35.352;149.036;2023-09-19T02:14:12;21.10;54.80
40023;DHT22;25713;-35.352;149.036;2023-09-19T02:16:43;21.10;55.10
40023;DHT22;25713;-35.352;149.036;2023-09-19T02:19:13;21.20;55.00
40023;DHT22;25713;-35.352;149.036;2023-09-19T02:21:43;21.30;55.10
40023;DHT22;25713;-35.352;149.036;2023-09-19T02:24:12;21.40;54.70
40023;DHT22;25713;-35.352;149.036;2023-09-19T02:26:42;21.40;54.10
40023;DHT22;25713;-35.352;149.036;2023-09-19T02:29:12;21.40;54.20
40023;DHT22;25713;-35.352;149.036;2023-09-19T02:31:43;21.50;53.90
40023;DHT22;25713;-35.352;149.036;2023-09-19T02:34:13;21.50;53.90
40023;DHT22;25713;-35.352;149.036;2023-09-19T02:36:42;21.40;54.60
40023;DHT22;25713;-35.352;149.036;2023-09-19T02:39:12;21.50;54.70
40023;DHT22;25713;-35.352;149.036;2023-09-19T02:41:41;21.60;53.40
40023;DHT22;25713;-35.352;149.036;2023-09-19T02:44:12;21.60;53.70
40023;DHT22;25713;-35.352;149.036;2023-09-19T02:46:44;21.70;54.00
40023;DHT22;25713;-35.352;149.036;2023-09-19T02:49:16;21.70;53.80
40023;DHT22;25713;-35.352;149.036;2023-09-19T02:51:45;21.80;53.60
40023;DHT22;25713;-35.352;149.036;2023-09-19T02:54:15;21.70;53.20
40023;DHT22;25713;-35.352;149.036;2023-09-19T02:56:44;21.80;53.00
40023;DHT22;25713;-35.352;149.036;2023-09-19T02:59:14;21.80;54.10
40023;DHT22;25713;-35.352;149.036;2023-09-19T03:01:46;21.70;54.50
40023;DHT22;25713;-35.352;149.036;2023-09-19T03:04:16;21.70;54.30
40023;DHT22;25713;-35.352;149.036;2023-09-19T03:06:45;21.60;54.50
40023;DHT22;25713;-35.352;149.036;2023-09-19T03:09:15;21.80;53.70
40023;DHT22;25713;-35.352;149.036;2023-09-19T03:11:44;21.80;54.10
40023;DHT22;25713;-35.352;149.036;2023-09-19T03:14:14;21.80;53.90
40023;DHT22;25713;-35.352;149.036;2023-09-19T03:16:45;21.80;52.20
40023;DHT22;25713;-35.352;149.036;2023-09-19T03:19:17;21.80;53.00
40023;DHT22;25713;-35.352;149.036;2023-09-19T03:21:47;21.80;51.50
40023;DHT22;25713;-35.352;149.036;2023-09-19T03:24:17;21.80;52.70
40023;DHT22;25713;-35.352;149.036;2023-09-19T03:26:46;21.80;53.10
40023;DHT22;25713;-35.352;149.036;2023-09-19T03:29:16;21.80;52.60
40023;DHT22;25713;-35.352;149.036;2023-09-19T03:31:49;21.90;53.40
40023;DHT22;25713;-35.352;149.036;2023-09-19T03:34:18;21.90;53.90
40023;DHT22;25713;-35.352;149.036;2023-09-19T03:36:48;21.90;53.20
40023;DHT22;25713;-35.352;149.036;2023-09-19T03:39:18;22.00;52.90
40023;DHT22;25713;-35.352;149.036;2023-09-19T03:41:47;22.00;52.40
40023;DHT22;25713;-35.352;149.036;2023-09-19T03:44:17;22.00;53.40
40023;DHT22;25713;-35.352;149.036;2023-09-19T03:46:48;22.10;51.80
40023;DHT22;25713;-35.352;149.036;2023-09-19T03:49:18;22.00;53.20
40023;DHT22;25713;-35.352;149.036;2023-09-19T03:51:47;22.00;52.80
40023;DHT22;25713;-35.352;149.036;2023-09-19T03:54:17;22.10;52.30
40023;DHT22;25713;-35.352;149.036;2023-09-19T03:56:46;22.00;53.40
40023;DHT22;25713;-35.352;149.036;2023-09-19T03:59:16;22.00;52.70
40023;DHT22;25713;-35.352;149.036;2023-09-19T04:01:45;22.00;52.70
40023;DHT22;25713;-35.352;149.036;2023-09-19T04:04:16;22.10;51.50
40023;DHT22;25713;-35.352;149.036;2023-09-19T04:06:46;22.10;51.60
40023;DHT22;25713;-35.352;149.036;2023-09-19T04:09:15;22.20;52.30
40023;DHT22;25713;-35.352;149.036;2023-09-19T04:11:45;22.10;52.80
40023;DHT22;25713;-35.352;149.036;2023-09-19T04:14:14;22.10;51.20
40023;DHT22;25713;-35.352;149.036;2023-09-19T04:16:43;22.10;51.50
40023;DHT22;25713;-35.352;149.036;2023-09-19T04:19:17;22.20;51.20
40023;DHT22;25713;-35.352;149.036;2023-09-19T04:21:46;22.20;51.70
40023;DHT22;25713;-35.352;149.036;2023-09-19T04:24:16;22.20;51.30
40023;DHT22;25713;-35.352;149.036;2023-09-19T04:26:45;22.10;52.40
40023;DHT22;25713;-35.352;149.036;2023-09-19T04:29:14;22.20;51.90
40023;DHT22;25713;-35.352;149.036;2023-09-19T04:31:44;22.20;53.30
40023;DHT22;25713;-35.352;149.036;2023-09-19T04:34:15;22.10;53.00
40023;DHT22;25713;-35.352;149.036;2023-09-19T04:36:45;22.10;52.70
40023;DHT22;25713;-35.352;149.036;2023-09-19T04:39:14;22.10;52.10
40023;DHT22;25713;-35.352;149.036;2023-09-19T04:41:44;22.20;51.70
40023;DHT22;25713;-35.352;149.036;2023-09-19T04:44:13;22.30;52.30
40023;DHT22;25713;-35.352;149.036;2023-09-19T04:46:43;22.30;52.30
40023;DHT22;25713;-35.352;149.036;2023-09-19T04:49:12;22.20;51.50
40023;DHT22;25713;-35.352;149.036;2023-09-19T04:51:44;22.10;52.80
40023;DHT22;25713;-35.352;149.036;2023-09-19T04:54:14;22.10;52.70
40023;DHT22;25713;-35.352;149.036;2023-09-19T04:56:43;22.10;51.80
40023;DHT22;25713;-35.352;149.036;2023-09-19T04:59:12;22.20;52.90
40023;DHT22;25713;-35.352;149.036;2023-09-19T05:01:42;22.20;52.70
40023;DHT22;25713;-35.352;149.036;2023-09-19T05:04:11;22.20;53.00
40023;DHT22;25713;-35.352;149.036;2023-09-19T05:06:42;22.20;52.40
40023;DHT22;25713;-35.352;149.036;2023-09-19T05:09:12;22.20;52.40
40023;DHT22;25713;-35.352;149.036;2023-09-19T05:11:41;22.30;52.10
40023;DHT22;25713;-35.352;149.036;2023-09-19T05:14:11;22.30;51.90
40023;DHT22;25713;-35.352;149.036;2023-09-19T05:16:40;22.30;53.00
40023;DHT22;25713;-35.352;149.036;2023-09-19T05:19:09;22.30;52.30
40023;DHT22;25713;-35.352;149.036;2023-09-19T05:21:39;22.20;52.70
40023;DHT22;25713;-35.352;149.036;2023-09-19T05:24:10;22.10;52.10
40023;DHT22;25713;-35.352;149.036;2023-09-19T05:26:40;22.10;52.00
40023;DHT22;25713;-35.352;149.036;2023-09-19T05:29:09;22.10;52.10
40023;DHT22;25713;-35.352;149.036;2023-09-19T05:31:38;22.10;52.20
40023;DHT22;25713;-35.352;149.036;2023-09-19T05:34:08;22.20;52.00
40023;DHT22;25713;-35.352;149.036;2023-09-19T05:36:37;22.20;52.90
40023;DHT22;25713;-35.352;149.036;2023-09-19T05:39:08;22.20;51.90
40023;DHT22;25713;-35.352;149.036;2023-09-19T05:41:38;22.20;52.10
40023;DHT22;25713;-35.352;149.036;2023-09-19T05:44:07;22.30;51.30
40023;DHT22;25713;-35.352;149.036;2023-09-19T05:46:37;22.20;52.20
40023;DHT22;25713;-35.352;149.036;2023-09-19T05:49:06;22.20;52.90
40023;DHT22;25713;-35.352;149.036;2023-09-19T05:51:35;22.20;52.30
40023;DHT22;25713;-35.352;149.036;2023-09-19T05:54:05;22.10;52.80
40023;DHT22;25713;-35.352;149.036;2023-09-19T05:56:37;22.00;53.70
40023;DHT22;25713;-35.352;149.036;2023-09-19T05:59:07;22.10;53.60
40023;DHT22;25713;-35.352;149.036;2023-09-19T06:01:36;22.10;53.20
40023;DHT22;25713;-35.352;149.036;2023-09-19T06:04:06;22.10;53.40
40023;DHT22;25713;-35.352;149.036;2023-09-19T06:06:35;21.90;52.70
40023;DHT22;25713;-35.352;149.036;2023-09-19T06:09:06;21.90;53.10
40023;DHT22;25713;-35.352;149.036;2023-09-19T06:11:38;21.90;52.90
40023;DHT22;25713;-35.352;149.036;2023-09-19T06:14:08;21.90;52.80
40023;DHT22;25713;-35.352;149.036;2023-09-19T06:16:37;21.90;52.40
40023;DHT22;25713;-35.352;149.036;2023-09-19T06:19:07;21.90;52.80
40023;DHT22;25713;-35.352;149.036;2023-09-19T06:21:36;21.90;52.60
40023;DHT22;25713;-35.352;149.036;2023-09-19T06:24:06;21.90;52.70
40023;DHT22;25713;-35.352;149.036;2023-09-19T06:26:38;22.00;51.10
40023;DHT22;25713;-35.352;149.036;2023-09-19T06:29:07;22.00;52.40
40023;DHT22;25713;-35.352;149.036;2023-09-19T06:31:39;21.90;52.10
40023;DHT22;25713;-35.352;149.036;2023-09-19T06:34:09;21.90;52.70
40023;DHT22;25713;-35.352;149.036;2023-09-19T06:36:38;21.80;52.90
40023;DHT22;25713;-35.352;149.036;2023-09-19T06:39:07;21.80;52.60
40023;DHT22;25713;-35.352;149.036;2023-09-19T06:41:39;21.80;52.30
40023;DHT22;25713;-35.352;149.036;2023-09-19T06:44:12;21.80;52.60
40023;DHT22;25713;-35.352;149.036;2023-09-19T06:46:41;21.80;52.70
40023;DHT22;25713;-35.352;149.036;2023-09-19T06:49:11;21.80;52.70
40023;DHT22;25713;-35.352;149.036;2023-09-19T06:51:40;21.80;52.50
40023;DHT22;25713;-35.352;149.036;2023-09-19T06:54:10;21.80;52.40
40023;DHT22;25713;-35.352;149.036;2023-09-19T06:56:41;21.80;52.60
40023;DHT22;25713;-35.352;149.036;2023-09-19T06:59:10;21.80;53.20
40023;DHT22;25713;-35.352;149.036;2023-09-19T07:01:40;21.80;53.20
40023;DHT22;25713;-35.352;149.036;2023-09-19T07:04:10;21.70;53.80
40023;DHT22;25713;-35.352;149.036;2023-09-19T07:06:39;21.70;53.80
40023;DHT22;25713;-35.352;149.036;2023-09-19T07:09:08;21.60;54.10
40023;DHT22;25713;-35.352;149.036;2023-09-19T07:11:41;21.60;54.10
40023;DHT22;25713;-35.352;149.036;2023-09-19T07:14:10;21.60;54.30
40023;DHT22;25713;-35.352;149.036;2023-09-19T07:16:40;21.60;55.00
40023;DHT22;25713;-35.352;149.036;2023-09-19T07:19:09;21.50;54.40
40023;DHT22;25713;-35.352;149.036;2023-09-19T07:21:39;21.50;54.60
40023;DHT22;25713;-35.352;149.036;2023-09-19T07:24:08;21.50;55.40
40023;DHT22;25713;-35.352;149.036;2023-09-19T07:26:40;21.40;55.10
40023;DHT22;25713;-35.352;149.036;2023-09-19T07:29:09;21.40;55.50
40023;DHT22;25713;-35.352;149.036;2023-09-19T07:31:39;21.40;55.40
40023;DHT22;25713;-35.352;149.036;2023-09-19T07:34:08;21.30;55.80
40023;DHT22;25713;-35.352;149.036;2023-09-19T07:36:38;21.30;55.80
40023;DHT22;25713;-35.352;149.036;2023-09-19T07:39:07;21.30;56.20
40023;DHT22;25713;-35.352;149.036;2023-09-19T07:41:37;21.30;56.00
40023;DHT22;25713;-35.352;149.036;2023-09-19T07:44:09;21.20;56.50
40023;DHT22;25713;-35.352;149.036;2023-09-19T07:46:39;21.20;56.20
40023;DHT22;25713;-35.352;149.036;2023-09-19T07:49:08;21.20;56.60
40023;DHT22;25713;-35.352;149.036;2023-09-19T07:51:38;21.20;56.50
40023;DHT22;25713;-35.352;149.036;2023-09-19T07:54:07;21.10;57.00
40023;DHT22;25713;-35.352;149.036;2023-09-19T07:56:37;21.10;57.00
40023;DHT22;25713;-35.352;149.036;2023-09-19T07:59:08;21.10;56.70
40023;DHT22;25713;-35.352;149.036;2023-09-19T08:01:38;21.10;56.90
40023;DHT22;25713;-35.352;149.036;2023-09-19T08:04:07;21.10;56.80
40023;DHT22;25713;-35.352;149.036;2023-09-19T08:06:37;21.00;57.00
40023;DHT22;25713;-35.352;149.036;2023-09-19T08:09:06;21.00;57.20
40023;DHT22;25713;-35.352;149.036;2023-09-19T08:11:36;21.00;57.00
40023;DHT22;25713;-35.352;149.036;2023-09-19T08:14:07;21.00;57.30
40023;DHT22;25713;-35.352;149.036;2023-09-19T08:16:37;21.00;57.60
40023;DHT22;25713;-35.352;149.036;2023-09-19T08:19:06;20.90;57.60
40023;DHT22;25713;-35.352;149.036;2023-09-19T08:21:35;20.90;58.00
40023;DHT22;25713;-35.352;149.036;2023-09-19T08:24:05;20.90;57.80
40023;DHT22;25713;-35.352;149.036;2023-09-19T08:26:35;20.80;57.80
40023;DHT22;25713;-35.352;149.036;2023-09-19T08:29:04;20.80;57.90
40023;DHT22;25713;-35.352;149.036;2023-09-19T08:31:35;20.80;57.90
40023;DHT22;25713;-35.352;149.036;2023-09-19T08:34:05;20.80;57.90
40023;DHT22;25713;-35.352;149.036;2023-09-19T08:36:34;20.80;58.30
40023;DHT22;25713;-35.352;149.036;2023-09-19T08:39:04;20.80;58.30
40023;DHT22;25713;-35.352;149.036;2023-09-19T08:41:33;20.80;58.60
40023;DHT22;25713;-35.352;149.036;2023-09-19T08:44:03;20.70;58.60
40023;DHT22;25713;-35.352;149.036;2023-09-19T08:46:37;20.70;58.80
40023;DHT22;25713;-35.352;149.036;2023-09-19T08:49:15;20.70;59.20
40023;DHT22;25713;-35.352;149.036;2023-09-19T08:51:53;20.70;59.30
40023;DHT22;25713;-35.352;149.036;2023-09-19T08:54:26;20.70;59.30
40023;DHT22;25713;-35.352;149.036;2023-09-19T08:56:57;20.70;59.70
40023;DHT22;25713;-35.352;149.036;2023-09-19T08:59:28;20.60;60.10
40023;DHT22;25713;-35.352;149.036;2023-09-19T09:02:00;20.60;59.80
40023;DHT22;25713;-35.352;149.036;2023-09-19T09:04:30;20.60;59.50
40023;DHT22;25713;-35.352;149.036;2023-09-19T09:07:00;20.60;59.20
40023;DHT22;25713;-35.352;149.036;2023-09-19T09:09:30;20.60;59.50
40023;DHT22;25713;-35.352;149.036;2023-09-19T09:12:00;20.60;59.40
40023;DHT22;25713;-35.352;149.036;2023-09-19T09:14:29;20.60;59.70
40023;DHT22;25713;-35.352;149.036;2023-09-19T09:17:01;20.50;59.50
40023;DHT22;25713;-35.352;149.036;2023-09-19T09:19:31;20.50;59.40
40023;DHT22;25713;-35.352;149.036;2023-09-19T09:22:08;20.50;59.10
40023;DHT22;25713;-35.352;149.036;2023-09-19T09:24:50;20.50;59.30
40023;DHT22;25713;-35.352;149.036;2023-09-19T09:27:20;20.40;59.00
40023;DHT22;25713;-35.352;149.036;2023-09-19T09:29:50;20.40;58.90
40023;DHT22;25713;-35.352;149.036;2023-09-19T09:32:23;20.50;59.50
40023;DHT22;25713;-35.352;149.036;2023-09-19T09:34:53;20.40;59.20
40023;DHT22;25713;-35.352;149.036;2023-09-19T09:37:23;20.40;59.10
40023;DHT22;25713;-35.352;149.036;2023-09-19T09:39:54;20.40;58.70
40023;DHT22;25713;-35.352;149.036;2023-09-19T09:42:34;20.30;58.60
40023;DHT22;25713;-35.352;149.036;2023-09-19T09:45:17;20.30;58.60
40023;DHT22;25713;-35.352;149.036;2023-09-19T09:47:49;20.30;58.80
40023;DHT22;25713;-35.352;149.036;2023-09-19T09:50:28;20.30;59.30
40023;DHT22;25713;-35.352;149.036;2023-09-19T09:52:58;20.30;58.80
40023;DHT22;25713;-35.352;149.036;2023-09-19T09:55:28;20.30;58.30
40023;DHT22;25713;-35.352;149.036;2023-09-19T09:58:18;20.30;59.00
40023;DHT22;25713;-35.352;149.036;2023-09-19T10:00:58;20.20;58.70
40023;DHT22;25713;-35.352;149.036;2023-09-19T10:03:38;20.20;58.40
40023;DHT22;25713;-35.352;149.036;2023-09-19T10:06:10;20.20;58.30
40023;DHT22;25713;-35.352;149.036;2023-09-19T10:08:41;20.20;58.60
40023;DHT22;25713;-35.352;149.036;2023-09-19T10:11:26;20.20;58.70
40023;DHT22;25713;-35.352;149.036;2023-09-19T10:13:57;20.20;57.50
40023;DHT22;25713;-35.352;149.036;2023-09-19T10:16:30;20.20;58.80
40023;DHT22;25713;-35.352;149.036;2023-09-19T10:19:06;20.10;58.00
40023;DHT22;25713;-35.352;149.036;2023-09-19T10:21:37;20.10;57.50
40023;DHT22;25713;-35.352;149.036;2023-09-19T10:24:09;20.10;57.50
40023;DHT22;25713;-35.352;149.036;2023-09-19T10:26:40;20.10;58.00
40023;DHT22;25713;-35.352;149.036;2023-09-19T10:29:10;20.10;57.30
40023;DHT22;25713;-35.352;149.036;2023-09-19T10:31:43;20.10;57.10
40023;DHT22;25713;-35.352;149.036;2023-09-19T10:34:16;20.10;56.10
40023;DHT22;25713;-35.352;149.036;2023-09-19T10:36:47;20.10;56.30
40023;DHT22;25713;-35.352;149.036;2023-09-19T10:39:18;20.10;56.90
40023;DHT22;25713;-35.352;149.036;2023-09-19T10:41:53;20.10;56.60
40023;DHT22;25713;-35.352;149.036;2023-09-19T10:44:24;20.10;55.00
40023;DHT22;25713;-35.352;149.036;2023-09-19T10:46:56;20.00;55.30
40023;DHT22;25713;-35.352;149.036;2023-09-19T10:49:32;20.10;55.60
40023;DHT22;25713;-35.352;149.036;2023-09-19T10:52:02;20.10;55.10
40023;DHT22;25713;-35.352;149.036;2023-09-19T10:54:36;20.10;54.80
40023;DHT22;25713;-35.352;149.036;2023-09-19T10:57:07;20.00;55.90
40023;DHT22;25713;-35.352;149.036;2023-09-19T10:59:46;20.00;54.50
40023;DHT22;25713;-35.352;149.036;2023-09-19T11:02:30;20.00;55.40
40023;DHT22;25713;-35.352;149.036;2023-09-19T11:05:12;19.90;54.90
40023;DHT22;25713;-35.352;149.036;2023-09-19T11:08:00;20.00;54.70
40023;DHT22;25713;-35.352;149.036;2023-09-19T11:10:49;19.90;54.90
40023;DHT22;25713;-35.352;149.036;2023-09-19T11:13:29;19.90;54.20
40023;DHT22;25713;-35.352;149.036;2023-09-19T11:16:07;19.90;54.60
40023;DHT22;25713;-35.352;149.036;2023-09-19T11:18:55;19.90;55.20
40023;DHT22;25713;-35.352;149.036;2023-09-19T11:22:01;19.80;54.40
40023;DHT22;25713;-35.352;149.036;2023-09-19T11:24:31;19.80;53.80
40023;DHT22;25713;-35.352;149.036;2023-09-19T11:27:13;19.80;53.80
40023;DHT22;25713;-35.352;149.036;2023-09-19T11:29:43;19.80;53.70
40023;DHT22;25713;-35.352;149.036;2023-09-19T11:32:14;19.80;53.60
40023;DHT22;25713;-35.352;149.036;2023-09-19T11:34:48;19.80;53.00
40023;DHT22;25713;-35.352;149.036;2023-09-19T11:40:38;19.80;53.30
40023;DHT22;25713;-35.352;149.036;2023-09-19T11:43:33;19.80;53.10
40023;DHT22;25713;-35.352;149.036;2023-09-19T11:46:08;19.80;52.70
40023;DHT22;25713;-35.352;149.036;2023-09-19T11:48:40;19.80;53.10
40023;DHT22;25713;-35.352;149.036;2023-09-19T11:51:15;19.80;53.30
40023;DHT22;25713;-35.352;149.036;2023-09-19T11:53:46;19.70;52.80
40023;DHT22;25713;-35.352;149.036;2023-09-19T11:56:20;19.70;52.60
40023;DHT22;25713;-35.352;149.036;2023-09-19T11:58:51;19.70;53.10
40023;DHT22;25713;-35.352;149.036;2023-09-19T12:01:29;19.70;53.20
40023;DHT22;25713;-35.352;149.036;2023-09-19T12:04:00;19.70;52.40
40023;DHT22;25713;-35.352;149.036;2023-09-19T12:06:31;19.70;52.90
40023;DHT22;25713;-35.352;149.036;2023-09-19T12:09:01;19.60;52.90
40023;DHT22;25713;-35.352;149.036;2023-09-19T12:11:42;19.60;53.00
40023;DHT22;25713;-35.352;149.036;2023-09-19T12:14:21;19.60;53.10
40023;DHT22;25713;-35.352;149.036;2023-09-19T12:16:56;19.60;52.80
40023;DHT22;25713;-35.352;149.036;2023-09-19T12:19:27;19.50;52.90
40023;DHT22;25713;-35.352;149.036;2023-09-19T12:22:01;19.50;52.20
40023;DHT22;25713;-35.352;149.036;2023-09-19T12:24:31;19.50;52.60
40023;DHT22;25713;-35.352;149.036;2023-09-19T12:27:06;19.50;52.20
40023;DHT22;25713;-35.352;149.036;2023-09-19T12:29:44;19.50;52.10
40023;DHT22;25713;-35.352;149.036;2023-09-19T12:32:15;19.50;52.40
40023;DHT22;25713;-35.352;149.036;2023-09-19T12:34:51;19.50;52.50
40023;DHT22;25713;-35.352;149.036;2023-09-19T12:37:22;19.40;52.80
40023;DHT22;25713;-35.352;149.036;2023-09-19T12:39:54;19.40;52.40
40023;DHT22;25713;-35.352;149.036;2023-09-19T12:42:35;19.40;52.90
40023;DHT22;25713;-35.352;149.036;2023-09-19T12:45:08;19.40;53.10
40023;DHT22;25713;-35.352;149.036;2023-09-19T12:47:38;19.30;53.30
40023;DHT22;25713;-35.352;149.036;2023-09-19T12:50:12;19.30;53.20
40023;DHT22;25713;-35.352;149.036;2023-09-19T12:52:43;19.30;53.20
40023;DHT22;25713;-35.352;149.036;2023-09-19T12:55:24;19.30;53.40
40023;DHT22;25713;-35.352;149.036;2023-09-19T12:58:13;19.30;51.80
40023;DHT22;25713;-35.352;149.036;2023-09-19T13:00:43;19.30;52.90
40023;DHT22;25713;-35.352;149.036;2023-09-19T13:03:24;19.20;53.00
40023;DHT22;25713;-35.352;149.036;2023-09-19T13:05:55;19.30;53.40
40023;DHT22;25713;-35.352;149.036;2023-09-19T13:08:28;19.30;53.00
40023;DHT22;25713;-35.352;149.036;2023-09-19T13:11:08;19.30;52.50
40023;DHT22;25713;-35.352;149.036;2023-09-19T13:13:43;19.20;53.10
40023;DHT22;25713;-35.352;149.036;2023-09-19T13:16:14;19.20;53.40
40023;DHT22;25713;-35.352;149.036;2023-09-19T13:18:48;19.20;52.70
40023;DHT22;25713;-35.352;149.036;2023-09-19T13:21:26;19.20;53.00
40023;DHT22;25713;-35.352;149.036;2023-09-19T13:24:01;19.20;53.50
40023;DHT22;25713;-35.352;149.036;2023-09-19T13:26:46;19.10;54.10
40023;DHT22;25713;-35.352;149.036;2023-09-19T13:29:18;19.10;54.00
40023;DHT22;25713;-35.352;149.036;2023-09-19T13:31:48;19.10;53.10
40023;DHT22;25713;-35.352;149.036;2023-09-19T13:34:17;19.10;53.20
40023;DHT22;25713;-35.352;149.036;2023-09-19T13:36:47;19.10;52.90
40023;DHT22;25713;-35.352;149.036;2023-09-19T13:39:16;19.00;52.90
40023;DHT22;25713;-35.352;149.036;2023-09-19T13:41:47;19.00;52.40
40023;DHT22;25713;-35.352;149.036;2023-09-19T13:44:18;19.00;52.80
40023;DHT22;25713;-35.352;149.036;2023-09-19T13:46:48;19.00;53.40
40023;DHT22;25713;-35.352;149.036;2023-09-19T13:49:17;19.00;52.90
40023;DHT22;25713;-35.352;149.036;2023-09-19T13:51:47;19.00;52.70
40023;DHT22;25713;-35.352;149.036;2023-09-19T13:54:16;19.00;53.00
40023;DHT22;25713;-35.352;149.036;2023-09-19T13:56:46;19.00;53.00
40023;DHT22;25713;-35.352;149.036;2023-09-19T13:59:17;19.00;52.30
40023;DHT22;25713;-35.352;149.036;2023-09-19T14:01:47;19.00;53.10
40023;DHT22;25713;-35.352;149.036;2023-09-19T14:04:16;19.00;52.50
40023;DHT22;25713;-35.352;149.036;2023-09-19T14:06:46;19.00;52.80
40023;DHT22;25713;-35.352;149.036;2023-09-19T14:09:15;18.90;52.60
40023;DHT22;25713;-35.352;149.036;2023-09-19T14:11:45;18.90;52.40
40023;DHT22;25713;-35.352;149.036;2023-09-19T14:14:14;18.90;52.40
40023;DHT22;25713;-35.352;149.036;2023-09-19T14:16:46;18.90;52.80
40023;DHT22;25713;-35.352;149.036;2023-09-19T14:19:15;18.90;52.80
40023;DHT22;25713;-35.352;149.036;2023-09-19T14:21:45;18.80;52.80
40023;DHT22;25713;-35.352;149.036;2023-09-19T14:24:18;18.80;52.40
40023;DHT22;25713;-35.352;149.036;2023-09-19T14:26:48;18.80;52.50
40023;DHT22;25713;-35.352;149.036;2023-09-19T14:29:17;18.80;52.60
40023;DHT22;25713;-35.352;149.036;2023-09-19T14:31:49;18.80;52.70
40023;DHT22;25713;-35.352;149.036;2023-09-19T14:34:18;18.80;52.70
40023;DHT22;25713;-35.352;149.036;2023-09-19T14:36:48;18.80;53.20
40023;DHT22;25713;-35.352;149.036;2023-09-19T14:39:17;18.70;53.10
40023;DHT22;25713;-35.352;149.036;2023-09-19T14:41:47;18.70;53.60
40023;DHT22;25713;-35.352;149.036;2023-09-19T14:44:16;18.70;53.80
40023;DHT22;25713;-35.352;149.036;2023-09-19T15:59:29;18.30;50.30
40023;DHT22;25713;-35.352;149.036;2023-09-19T16:01:59;18.40;51.00
40023;DHT22;25713;-35.352;149.036;2023-09-19T16:04:28;18.40;50.20
40023;DHT22;25713;-35.352;149.036;2023-09-19T16:06:58;18.40;51.00
40023;DHT22;25713;-35.352;149.036;2023-09-19T16:09:27;18.40;49.80
40023;DHT22;25713;-35.352;149.036;2023-09-19T16:11:56;18.40;48.70
40023;DHT22;25713;-35.352;149.036;2023-09-19T16:14:28;18.50;49.10
40023;DHT22;25713;-35.352;149.036;2023-09-19T16:16:57;18.50;48.70
40023;DHT22;25713;-35.352;149.036;2023-09-19T16:19:27;18.50;48.60
40023;DHT22;25713;-35.352;149.036;2023-09-19T16:21:56;18.50;49.30
40023;DHT22;25713;-35.352;149.036;2023-09-19T16:24:25;18.40;50.20
40023;DHT22;25713;-35.352;149.036;2023-09-19T16:26:55;18.40;50.90
40023;DHT22;25713;-35.352;149.036;2023-09-19T16:29:24;18.40;50.90
40023;DHT22;25713;-35.352;149.036;2023-09-19T16:31:55;18.30;49.90
40023;DHT22;25713;-35.352;149.036;2023-09-19T16:34:25;18.30;50.90